Kelly, Kansas
Current Conditions -  °F | °C
As of 6:40 AM on Sunday 21 Dec 2014 (Local Time) from KFNB Reporting Station
Broken Clouds Broken Clouds  
Wind Chill: 28°   Ceiling: 1900
Heat Index: 37°   Visibility: 9mi
Dew Point: 34°   Wind: 14mph
Humidity: 89%   Direction: 170°S
Pressure: 29.97"   Gusts: NA
Location:  39.8497°N, 96.0411°W
Report Text: KFNB 211240Z AUTO 17012KT 9SM BKN019 03/01 A2997 RMK AO2 T00280011
Loading
Personal Weather Stations






























Interactive Weather Map New forecast layout! Learn more

10-Day Weather Forecast

Advertisements
Track Severe Weather on mobile